This is the latest recevied weather packets stored in our database for station/object SR4DIG-13. If no packets are shown the sender has not sent any weather packets the latest 10 day(s).
| Time | Temp. | Humidity | Pressure | Rain* | Wind** | Luminosity | Snow |
|---|---|---|---|---|---|---|---|
| 1788351353 | 25.56° C | 48% | 1016.2 hPa | 0 mm | - | - | - |
| 1788351052 | 26.67° C | 46% | 1016.2 hPa | 0 mm | - | - | - |
| 1788350752 | 26.67° C | 47% | 1016.2 hPa | 0 mm | - | - | - |
| 1788350425 | 24.44° C | 52% | 1016.2 hPa | 0 mm | - | - | - |
| 1788349888 | 23.89° C | 53% | 1016.3 hPa | 0 mm | - | - | - |
| 1788349587 | 24.44° C | 53% | 1016.4 hPa | 0 mm | - | - | - |
| 1788349286 | 23.89° C | 52% | 1016.4 hPa | 0 mm | - | - | - |
| 1788348984 | 24.44° C | 52% | 1016.4 hPa | 0 mm | - | - | - |
| 1788348684 | 25° C | 51% | 1016.4 hPa | 0 mm | - | - | - |
| 1788348383 | 26.11° C | 50% | 1016.5 hPa | 0 mm | - | - | - |
| 1788348082 | 26.11° C | 50% | 1016.6 hPa | 0 mm | - | - | - |
| 1788347781 | 25° C | 52% | 1016.6 hPa | 0 mm | - | - | - |
| 1788347480 | 25° C | 51% | 1016.7 hPa | 0 mm | - | - | - |
| 1788347179 | 24.44° C | 52% | 1016.7 hPa | 0 mm | - | - | - |
| 1788346878 | 24.44° C | 51% | 1016.8 hPa | 0 mm | - | - | - |
| 1788346577 | 25° C | 51% | 1016.8 hPa | 0 mm | - | - | - |
| 1788346277 | 25° C | 51% | 1016.7 hPa | 0 mm | - | - | - |
| 1788345976 | 25° C | 50% | 1016.7 hPa | 0 mm | - | - | - |
| 1788345073 | 28.33° C | 46% | 1016.7 hPa | 0 mm | - | - | - |
| 1788344772 | 27.22° C | 49% | 1016.7 hPa | 0 mm | - | - | - |
| 1788344471 | 26.67° C | 51% | 1016.8 hPa | 0 mm | - | - | - |
| 1788344170 | 25° C | 53% | 1016.9 hPa | 0 mm | - | - | - |
| 1788343523 | 23.89° C | 56% | 1017 hPa | 0 mm | - | - | - |
| 1788343222 | 23.33° C | 56% | 1017 hPa | 0 mm | - | - | - |
| 1788342922 | 23.33° C | 55% | 1017.1 hPa | 0 mm | - | - | - |
* Rain latest hour (hover to see other rain measurements)
** Current wind speed in m/s (hover to see current wind gust speed)